Time;durP1;ratioP1;P1;durP2;ratioP2;P2;SDS_P1;SDS_P2;PMS_P1;PMS_P2;Temp;Humidity;BMP_temperature;BMP_pressure;BME280_temperature;BME280_humidity;BME280_pressure;Samples;Min_cycle;Max_cycle;Signal;HPM_P1;HPM_P2
2022/05/20 00:02:13;;;;;;;6.80;3.17;;;;;;;11.77;70.21;100327.52;1722731;82;21681;-82
2022/05/20 00:05:18;;;;;;;9.58;3.70;;;;;;;11.73;69.98;100327.55;1724334;81;21164;-83
2022/05/20 00:08:24;;;;;;;10.60;3.30;;;;;;;11.69;69.96;100327.57;1725428;83;21261;-83
2022/05/20 00:11:29;;;;;;;8.75;3.65;;;;;;;11.63;70.11;100331.05;1726027;83;21176;-82
2022/05/20 00:14:35;;;;;;;8.98;3.70;;;;;;;11.55;70.30;100325.63;1697219;83;21204;-82
2022/05/20 00:17:43;;;;;;;9.83;3.33;;;;;;;11.46;70.49;100325.67;1722834;81;21195;-83
2022/05/20 00:20:49;;;;;;;14.33;3.30;;;;;;;11.38;70.62;100321.61;1731797;81;21210;-82
2022/05/20 00:23:55;;;;;;;8.38;3.60;;;;;;;11.30;70.89;100329.05;1754613;81;21229;-82
2022/05/20 00:27:01;;;;;;;9.65;3.25;;;;;;;11.20;71.06;100328.77;1755244;81;21225;-82
2022/05/20 00:30:06;;;;;;;9.05;3.52;;;;;;;11.10;71.40;100331.36;1755820;81;21177;-83
2022/05/20 00:33:13;;;;;;;12.35;4.30;;;;;;;10.96;71.78;100332.97;1755956;81;21220;-83
2022/05/20 00:36:18;;;;;;;6.35;3.20;;;;;;;10.84;72.10;100329.79;1751375;80;21775;-82
2022/05/20 00:39:23;;;;;;;9.10;4.15;;;;;;;10.72;72.43;100322.98;1747689;82;21538;-83
2022/05/20 00:42:29;;;;;;;7.40;3.90;;;;;;;10.59;72.88;100323.56;1747649;82;21229;-83
2022/05/20 00:45:36;;;;;;;10.23;3.42;;;;;;;10.45;73.41;100318.83;1747436;82;21715;-83
2022/05/20 00:48:41;;;;;;;11.25;4.60;;;;;;;10.31;74.02;100325.02;1747613;82;21149;-82
2022/05/20 00:51:52;;;;;;;9.75;4.30;;;;;;;10.16;74.58;100330.28;1745518;82;21165;-82
2022/05/20 00:55:05;;;;;;;9.10;4.08;;;;;;;10.05;75.05;100336.97;1744587;82;21173;-83
2022/05/20 00:58:13;;;;;;;9.55;4.08;;;;;;;9.93;75.35;100331.01;1743844;82;21209;-83
2022/05/20 01:01:18;;;;;;;16.80;3.98;;;;;;;9.85;75.52;100324.69;1728878;82;21169;-82
2022/05/20 01:04:24;;;;;;;7.87;3.83;;;;;;;9.78;75.62;100328.59;1744675;82;21734;-83
2022/05/20 01:07:30;;;;;;;7.78;3.83;;;;;;;9.73;75.63;100333.20;1744299;82;21196;-83
2022/05/20 01:10:35;;;;;;;8.40;3.72;;;;;;;9.67;75.57;100327.59;1744811;82;21189;-77
2022/05/20 01:13:44;;;;;;;8.83;3.65;;;;;;;9.62;75.62;100329.46;1743691;82;21200;-83
2022/05/20 01:16:50;;;;;;;10.58;4.15;;;;;;;9.56;75.71;100330.15;1743457;82;21196;-83
2022/05/20 01:19:59;;;;;;;6.40;3.65;;;;;;;9.51;75.75;100329.80;1749614;81;21224;-77
2022/05/20 01:23:10;;;;;;;12.98;4.17;;;;;;;9.44;75.69;100330.97;1755179;81;21200;-77
2022/05/20 01:26:16;;;;;;;8.55;3.98;;;;;;;9.36;75.63;100330.09;1755128;81;21148;-77
2022/05/20 01:29:24;;;;;;;15.60;4.45;;;;;;;9.29;75.70;100329.93;1754994;81;21176;-77
2022/05/20 01:32:29;;;;;;;10.88;4.10;;;;;;;9.24;75.73;100332.31;1754847;81;21714;-77
2022/05/20 01:35:49;;;;;;;13.53;4.42;;;;;;;9.21;75.81;100332.63;1754943;81;21172;-77
2022/05/20 01:38:59;;;;;;;11.03;4.50;;;;;;;9.16;75.82;100329.04;1754982;81;21227;-77
2022/05/20 01:42:07;;;;;;;12.90;4.33;;;;;;;9.12;75.79;100334.99;1755049;81;21156;-77
2022/05/20 01:45:25;;;;;;;13.08;3.77;;;;;;;9.07;75.82;100338.73;1755010;81;21224;-77
2022/05/20 01:48:39;;;;;;;9.20;4.62;;;;;;;9.02;75.84;100350.66;1754256;81;21224;-77
2022/05/20 01:52:00;;;;;;;18.60;4.03;;;;;;;8.96;75.82;100353.55;1761682;80;21158;-77
2022/05/20 01:55:26;;;;;;;12.05;4.60;;;;;;;8.91;75.81;100351.82;1762940;81;21217;-77
2022/05/20 01:58:47;;;;;;;7.37;4.35;;;;;;;8.89;75.78;100350.63;1763882;81;21209;-77
2022/05/20 02:01:43;;;;;;;13.20;3.80;;;;;;;8.89;75.67;100352.48;1763835;81;21590;-77
2022/05/20 02:04:56;;;;;;;12.05;4.22;;;;;;;8.89;75.54;100357.94;1764286;81;21512;-77
2022/05/20 02:08:06;;;;;;;13.80;3.98;;;;;;;8.87;75.47;100352.66;1764019;81;21244;-77
2022/05/20 02:11:34;;;;;;;12.05;4.08;;;;;;;8.85;75.47;100357.43;1762509;81;21174;-77
2022/05/20 02:14:43;;;;;;;13.18;4.05;;;;;;;8.86;75.40;100360.50;1763939;81;21213;-77
2022/05/20 02:17:52;;;;;;;9.55;4.00;;;;;;;8.89;75.31;100349.27;1763805;81;21747;-77
2022/05/20 02:20:59;;;;;;;13.13;4.10;;;;;;;9.07;75.05;100352.37;1762689;81;21201;-77
2022/05/20 02:24:07;;;;;;;7.80;3.85;;;;;;;9.42;74.12;100357.60;1764371;81;21767;-77
2022/05/20 02:27:12;;;;;;;10.38;4.55;;;;;;;9.82;72.70;100359.17;1764293;81;21531;-77
2022/05/20 02:30:22;;;;;;;10.48;3.75;;;;;;;10.21;71.27;100356.61;1762766;81;21169;-77
2022/05/20 02:33:30;;;;;;;11.97;3.90;;;;;;;10.61;69.65;100363.05;1764300;81;21225;-77
2022/05/20 02:36:36;;;;;;;7.20;3.72;;;;;;;11.03;68.09;100355.87;1764358;80;21172;-77
2022/05/20 02:39:41;;;;;;;11.00;3.77;;;;;;;11.43;66.56;100354.81;1762969;81;21252;-83
2022/05/20 02:42:48;;;;;;;9.68;4.00;;;;;;;11.84;65.22;100351.80;1763520;81;21288;-83
2022/05/20 02:45:54;;;;;;;13.78;4.12;;;;;;;12.32;63.34;100359.24;1764412;81;21193;-82
2022/05/20 02:49:01;;;;;;;6.72;3.80;;;;;;;12.68;61.51;100358.02;1763189;81;21807;-82
2022/05/20 02:52:07;;;;;;;10.95;4.17;;;;;;;13.07;59.82;100361.49;1764443;81;21208;-82
2022/05/20 02:55:13;;;;;;;6.83;3.85;;;;;;;13.37;58.27;100361.81;1764498;81;21216;-82
2022/05/20 03:05:06;;;;;;;11.30;3.90;;;;;;;13.93;55.18;100362.00;1764461;80;21636;-82
2022/05/20 03:08:11;;;;;;;9.40;4.30;;;;;;;13.96;54.45;100362.11;1764352;81;21240;-82
2022/05/20 03:11:16;;;;;;;9.40;4.58;;;;;;;13.85;54.71;100367.62;1764823;81;21146;-83
2022/05/20 03:14:22;;;;;;;11.00;4.00;;;;;;;13.78;54.99;100372.19;1764672;81;21229;-82
2022/05/20 03:17:27;;;;;;;13.60;4.35;;;;;;;13.74;55.23;100371.75;1764611;81;21242;-83
2022/05/20 03:20:34;;;;;;;6.22;3.60;;;;;;;13.75;54.94;100370.69;1761103;81;21672;-82
2022/05/20 03:23:40;;;;;;;9.45;4.20;;;;;;;13.81;54.73;100372.65;1758218;81;21461;-83
2022/05/20 03:26:46;;;;;;;8.53;4.50;;;;;;;13.90;54.45;100373.38;1756839;81;21535;-82
2022/05/20 03:29:53;;;;;;;8.30;4.40;;;;;;;14.08;54.24;100374.82;1757385;81;21733;-82
2022/05/20 03:32:59;;;;;;;12.80;5.05;;;;;;;14.25;53.54;100372.94;1758536;81;21192;-82
2022/05/20 03:36:05;;;;;;;12.80;4.40;;;;;;;14.40;52.77;100373.41;1758210;81;21192;-83
2022/05/20 03:39:11;;;;;;;14.20;4.75;;;;;;;14.53;52.33;100381.24;1758710;81;21188;-82
2022/05/20 03:42:19;;;;;;;6.47;4.17;;;;;;;14.59;52.59;100372.73;1758824;81;21739;-82
2022/05/20 03:45:25;;;;;;;11.75;4.62;;;;;;;14.69;52.12;100380.10;1756938;81;21192;-82
2022/05/20 03:48:33;;;;;;;10.70;4.65;;;;;;;14.77;51.68;100384.58;1758387;81;21503;-82
2022/05/20 03:51:39;;;;;;;9.60;4.55;;;;;;;14.84;51.59;100368.97;1761849;81;21196;-82
2022/05/20 03:54:44;;;;;;;15.85;4.70;;;;;;;14.89;51.60;100377.47;1761846;81;21709;-82
2022/05/20 03:57:51;;;;;;;16.23;4.60;;;;;;;14.85;51.41;100378.08;1761845;81;21207;-82
2022/05/20 04:04:21;;;;;;;6.97;4.05;;;;;;;14.55;51.84;100383.81;1763372;81;21610;-82
2022/05/20 04:07:29;;;;;;;9.73;4.83;;;;;;;14.37;51.84;100383.42;1763043;81;21192;-82
2022/05/20 04:10:37;;;;;;;18.00;5.40;;;;;;;14.23;52.81;100380.56;1763790;81;21211;-82
2022/05/20 04:13:42;;;;;;;14.40;5.42;;;;;;;14.12;54.03;100384.38;1763441;81;21232;-83
2022/05/20 04:16:41;;;;;;;12.20;5.05;;;;;;;14.08;54.05;100388.57;1763473;81;21176;-82
2022/05/20 04:19:36;;;;;;;10.95;4.85;;;;;;;14.11;53.91;100388.16;1763585;81;21220;-79
2022/05/20 04:22:32;;;;;;;10.08;4.75;;;;;;;14.21;53.56;100391.42;1760287;81;21198;-77
2022/05/20 04:25:37;;;;;;;19.55;5.15;;;;;;;14.29;54.23;100390.76;1750747;81;21161;-82
2022/05/20 04:28:43;;;;;;;13.20;5.08;;;;;;;14.47;53.90;100386.15;1744829;82;21164;-77
2022/05/20 04:31:50;;;;;;;6.75;3.70;;;;;;;14.73;52.79;100392.95;1744745;81;21176;-82
2022/05/20 04:34:57;;;;;;;14.25;4.80;;;;;;;14.93;50.91;100394.45;1748476;81;21157;-82
2022/05/20 04:38:03;;;;;;;10.93;4.83;;;;;;;15.03;50.07;100394.92;1743390;81;22034;-82
2022/05/20 04:47:47;;;;;;;8.45;4.15;;;;;;;15.32;48.75;100394.64;1743373;82;21707;-82
2022/05/20 04:50:40;;;;;;;15.20;4.20;;;;;;;15.42;48.93;100398.39;1742753;81;21205;-82
2022/05/20 04:57:07;;;;;;;10.82;4.10;;;;;;;15.76;48.47;100382.83;1755518;81;21237;-82
2022/05/20 05:00:23;;;;;;;12.25;3.45;;;;;;;16.00;48.57;100385.03;1755159;81;21221;-82
2022/05/20 05:03:29;;;;;;;8.83;3.83;;;;;;;16.16;47.74;100387.05;1755541;81;21755;-82
2022/05/20 05:06:34;;;;;;;8.70;3.62;;;;;;;16.32;48.15;100388.00;1752966;81;22031;-82
2022/05/20 05:09:40;;;;;;;8.03;3.27;;;;;;;16.50;46.75;100396.50;1748557;81;21662;-82
2022/05/20 05:12:46;;;;;;;15.50;3.98;;;;;;;16.67;45.26;100398.84;1733932;81;21210;-81
2022/05/20 05:15:53;;;;;;;6.17;3.25;;;;;;;16.79;45.37;100394.38;1719266;83;21233;-81
2022/05/20 05:18:58;;;;;;;12.28;3.37;;;;;;;16.88;46.34;100395.84;1718089;83;21187;-82
2022/05/20 05:22:04;;;;;;;14.87;3.30;;;;;;;16.96;43.27;100392.87;1690352;83;21263;-80
2022/05/20 05:25:11;;;;;;;8.75;3.30;;;;;;;17.02;41.59;100401.66;1689918;84;21288;-81
2022/05/20 05:28:17;;;;;;;18.35;3.77;;;;;;;17.07;41.81;100408.77;1690455;85;21765;-81
2022/05/20 05:31:21;;;;;;;8.60;3.25;;;;;;;17.15;41.41;100404.09;1713610;83;21162;-81
2022/05/20 05:34:28;;;;;;;6.72;2.90;;;;;;;17.23;42.75;100402.48;1720394;83;21198;-81
2022/05/20 05:37:33;;;;;;;6.95;2.60;;;;;;;17.34;41.26;100394.34;1684959;85;21204;-81
2022/05/20 05:40:39;;;;;;;9.80;2.58;;;;;;;17.51;41.13;100405.77;1661484;86;21216;-81
2022/05/20 05:43:44;;;;;;;5.65;2.65;;;;;;;17.68;41.23;100403.87;1661275;86;21654;-81
2022/05/20 05:46:51;;;;;;;6.42;2.22;;;;;;;17.88;40.87;100406.05;1663492;86;21595;-81
2022/05/20 05:49:58;;;;;;;9.98;2.50;;;;;;;18.06;40.44;100404.73;1663580;84;21181;-82
2022/05/20 05:53:09;;;;;;;6.45;2.37;;;;;;;18.30;38.20;100406.37;1676153;84;21214;-81
2022/05/20 05:56:15;;;;;;;5.47;1.95;;;;;;;18.46;35.93;100421.61;1685176;85;21191;-81
2022/05/20 05:59:21;;;;;;;7.10;2.50;;;;;;;18.63;35.44;100414.41;1685161;84;21183;-82
2022/05/20 06:02:27;;;;;;;4.55;1.90;;;;;;;18.82;33.80;100414.82;1681082;84;21260;-81
2022/05/20 06:05:33;;;;;;;11.22;2.00;;;;;;;19.09;33.49;100417.30;1685991;85;21192;-81
2022/05/20 06:08:38;;;;;;;10.00;1.77;;;;;;;19.28;32.63;100416.77;1659727;86;21739;-82
2022/05/20 06:11:45;;;;;;;6.03;2.02;;;;;;;19.41;32.54;100415.23;1727653;82;21181;-82
2022/05/20 06:14:50;;;;;;;7.47;2.45;;;;;;;19.43;32.81;100415.84;1720460;81;21187;-82
2022/05/20 06:17:50;;;;;;;8.78;2.52;;;;;;;19.40;34.42;100413.55;1725975;83;21211;-81
2022/05/20 06:20:56;;;;;;;8.73;2.05;;;;;;;19.35;33.76;100406.47;1725590;81;21173;-82
2022/05/20 06:24:02;;;;;;;5.30;1.72;;;;;;;19.33;33.68;100408.06;1730253;81;21493;-82
2022/05/20 06:27:09;;;;;;;7.12;1.85;;;;;;;19.29;33.38;100413.80;1755665;81;21224;-82
2022/05/20 06:30:15;;;;;;;9.03;1.90;;;;;;;19.28;34.78;100407.91;1759319;81;21798;-82
2022/05/20 06:33:22;;;;;;;7.10;2.42;;;;;;;19.32;33.61;100420.78;1715077;83;21800;-82
2022/05/20 06:39:50;;;;;;;15.05;2.15;;;;;;;19.48;33.27;100413.25;1744590;82;21165;-83
2022/05/20 06:42:57;;;;;;;11.88;2.67;;;;;;;19.53;32.65;100417.55;1732690;82;21173;-83
2022/05/20 06:46:07;;;;;;;8.20;2.58;;;;;;;19.52;32.55;100404.73;1718090;83;22079;-83
2022/05/20 06:49:13;;;;;;;8.70;1.77;;;;;;;19.54;32.19;100406.76;1737586;82;21157;-83
2022/05/20 06:52:19;;;;;;;10.72;1.80;;;;;;;19.54;31.87;100420.63;1740499;80;21189;-83
2022/05/20 06:55:26;;;;;;;10.55;1.80;;;;;;;19.51;32.56;100407.22;1747645;82;21337;-83
2022/05/20 06:58:31;;;;;;;6.12;1.50;;;;;;;19.49;31.59;100401.61;1740103;81;21176;-83
2022/05/20 07:01:31;;;;;;;7.22;1.85;;;;;;;19.50;31.87;100409.69;1745989;81;21200;-83
2022/05/20 07:04:26;;;;;;;3.12;1.60;;;;;;;19.55;33.14;100409.83;1742853;82;21208;-83
2022/05/20 07:07:12;;;;;;;3.62;1.55;;;;;;;19.60;31.93;100398.07;1755966;81;21752;-83
2022/05/20 07:10:18;;;;;;;5.72;1.62;;;;;;;19.64;32.71;100414.56;1751143;82;21558;-83
2022/05/20 07:13:23;;;;;;;6.62;1.62;;;;;;;19.71;32.68;100413.92;1750553;80;21193;-83
2022/05/20 07:16:30;;;;;;;5.53;1.35;;;;;;;19.75;32.53;100405.98;1755761;81;21197;-84
2022/05/20 07:19:37;;;;;;;7.03;1.70;;;;;;;19.81;32.26;100407.84;1738836;81;21141;-83
2022/05/20 07:22:43;;;;;;;5.22;1.60;;;;;;;19.88;32.38;100423.84;1732442;82;21236;-83
2022/05/20 07:25:50;;;;;;;6.80;2.33;;;;;;;19.93;31.51;100422.59;1746220;82;21256;-83
2022/05/20 07:28:56;;;;;;;9.73;1.50;;;;;;;19.95;32.62;100409.86;1724701;83;21180;-83
2022/05/20 07:32:02;;;;;;;8.23;1.62;;;;;;;19.96;32.27;100423.52;1714596;83;21826;-78
2022/05/20 07:35:09;;;;;;;2.70;1.10;;;;;;;19.96;32.75;100415.20;1725815;83;21495;-78
2022/05/20 07:38:15;;;;;;;5.80;1.32;;;;;;;20.00;32.22;100423.36;1722281;83;21243;-78
2022/05/20 07:41:23;;;;;;;5.08;1.40;;;;;;;20.08;32.63;100413.83;1725189;83;21173;-84
2022/05/20 07:44:28;;;;;;;8.83;1.65;;;;;;;20.22;32.21;100417.27;1724373;83;21225;-84
2022/05/20 07:47:33;;;;;;;8.60;1.65;;;;;;;20.26;31.91;100429.59;1696550;84;21840;-83
2022/05/20 07:50:42;;;;;;;6.35;1.70;;;;;;;20.27;32.46;100418.78;1715208;83;21192;-85
2022/05/20 07:53:51;;;;;;;4.08;1.77;;;;;;;20.28;30.87;100420.47;1718952;83;21213;-83
2022/05/20 07:57:01;;;;;;;4.58;1.20;;;;;;;20.16;31.61;100431.02;1722800;82;21186;-83
2022/05/20 08:00:05;;;;;;;5.60;1.32;;;;;;;20.05;32.40;100419.87;1726170;83;21805;-84
2022/05/20 08:03:10;;;;;;;4.58;1.50;;;;;;;20.05;32.04;100424.05;1718687;83;21872;-84
2022/05/20 08:06:16;;;;;;;5.72;1.65;;;;;;;20.10;32.14;100419.47;1722578;82;21796;-84
2022/05/20 08:09:22;;;;;;;3.75;1.15;;;;;;;20.22;32.46;100418.65;1724371;83;21866;-84
2022/05/20 08:12:29;;;;;;;4.95;1.50;;;;;;;20.33;32.45;100420.63;1725304;83;21231;-84
2022/05/20 08:15:36;;;;;;;4.85;1.30;;;;;;;20.43;31.30;100412.55;1725406;83;21204;-83
2022/05/20 08:18:42;;;;;;;3.35;1.45;;;;;;;20.47;31.34;100397.66;1722759;83;21169;-83
2022/05/20 08:21:48;;;;;;;5.22;1.05;;;;;;;20.53;31.57;100413.39;1724761;83;21764;-83
2022/05/20 08:24:57;;;;;;;2.70;1.50;;;;;;;20.56;30.55;100409.59;1724210;83;21212;-83
2022/05/20 08:28:03;;;;;;;4.33;1.60;;;;;;;20.59;31.36;100404.92;1696771;83;21205;-83
2022/05/20 08:31:02;;;;;;;3.70;1.70;;;;;;;20.66;30.53;100402.05;1729736;82;21212;-83
2022/05/20 08:34:08;;;;;;;2.75;1.35;;;;;;;20.74;32.21;100399.44;1712760;83;21253;-83
2022/05/20 08:37:13;;;;;;;1.62;1.10;;;;;;;20.86;30.06;100403.08;1706308;83;21196;-83
2022/05/20 08:40:21;;;;;;;6.83;1.60;;;;;;;20.87;29.40;100395.03;1743732;82;21177;-83
2022/05/20 08:43:31;;;;;;;5.10;1.47;;;;;;;20.90;30.42;100416.26;1750048;82;21841;-83
2022/05/20 08:46:37;;;;;;;5.00;1.55;;;;;;;20.97;30.77;100402.77;1751367;82;21169;-83
2022/05/20 08:49:43;;;;;;;6.45;1.50;;;;;;;20.97;30.22;100395.27;1751150;82;21789;-83
2022/05/20 08:52:49;;;;;;;9.35;1.42;;;;;;;20.96;29.43;100393.58;1699969;83;21757;-84
2022/05/20 08:55:56;;;;;;;2.62;1.40;;;;;;;20.90;29.76;100393.17;1732026;82;21153;-83
2022/05/20 08:59:21;;;;;;;3.05;1.50;;;;;;;20.87;28.59;100411.17;1742969;82;21176;-83
2022/05/20 09:02:26;;;;;;;6.37;1.57;;;;;;;20.83;29.46;100396.60;1742767;82;21160;-83
2022/05/20 09:05:40;;;;;;;2.83;1.32;;;;;;;20.84;29.64;100401.06;1745726;81;21200;-83
2022/05/20 09:08:47;;;;;;;3.75;1.47;;;;;;;20.85;29.92;100406.41;1744529;82;21578;-83
2022/05/20 09:11:51;;;;;;;5.30;1.32;;;;;;;20.84;32.09;100396.90;1743044;82;21727;-83
2022/05/20 09:18:45;;;;;;;3.00;1.75;;;;;;;20.95;30.17;100411.91;1743603;82;22001;-84
2022/05/20 09:21:53;;;;;;;5.50;1.55;;;;;;;20.90;30.05;100389.00;1744306;82;21172;-83
2022/05/20 09:24:59;;;;;;;5.95;1.40;;;;;;;20.81;29.66;100401.57;1741142;82;21157;-84
2022/05/20 09:28:36;;;;;;;4.10;1.55;;;;;;;20.71;30.29;100398.55;1718244;81;21231;-83
2022/05/20 09:32:03;;;;;;;5.45;1.42;;;;;;;20.77;29.32;100399.81;1734510;82;21180;-84
2022/05/20 09:35:20;;;;;;;2.50;1.22;;;;;;;20.94;30.98;100397.16;1729014;82;21256;-84
2022/05/20 09:38:49;;;;;;;2.50;1.35;;;;;;;21.17;29.55;100396.27;1697873;83;21192;-83
2022/05/20 09:42:07;;;;;;;6.78;1.12;;;;;;;21.38;30.17;100386.48;1745814;81;21568;-84
2022/05/20 09:45:24;;;;;;;2.92;1.27;;;;;;;21.44;29.08;100391.05;1739501;82;21542;-84
2022/05/20 09:48:54;;;;;;;8.15;1.02;;;;;;;21.33;30.18;100390.55;1716188;82;21232;-84
2022/05/20 09:52:02;;;;;;;7.55;1.40;;;;;;;21.15;29.46;100387.34;1741476;80;21217;-84
2022/05/20 09:55:15;;;;;;;7.10;1.50;;;;;;;21.05;29.83;100375.44;1741852;82;21184;-84
2022/05/20 09:58:31;;;;;;;9.73;1.95;;;;;;;21.03;30.10;100385.98;1715987;83;21212;-84
2022/05/20 10:01:37;;;;;;;3.95;1.67;;;;;;;21.11;31.72;100382.80;1716994;82;21259;-84
2022/05/20 10:04:50;;;;;;;4.85;1.35;;;;;;;21.32;29.96;100383.30;1733172;82;21162;-84
2022/05/20 10:08:26;;;;;;;6.53;1.45;;;;;;;21.39;29.35;100376.48;1752880;81;21209;-83
2022/05/20 10:11:41;;;;;;;3.72;1.40;;;;;;;21.34;29.70;100374.16;1755845;81;21225;-83
2022/05/20 10:15:13;;;;;;;2.98;1.37;;;;;;;21.19;29.53;100393.56;1755397;81;21841;-83
2022/05/20 10:18:53;;;;;;;5.03;1.60;;;;;;;21.16;31.19;100391.25;1717170;83;21204;-83
2022/05/20 10:22:20;;;;;;;3.55;1.35;;;;;;;21.13;30.74;100391.77;1705923;83;21609;-83
2022/05/20 10:25:37;;;;;;;3.50;1.55;;;;;;;21.17;31.88;100387.41;1718284;82;21944;-83
2022/05/20 10:32:55;;;;;;;2.55;1.20;;;;;;;21.22;29.71;100375.55;1695557;84;21195;-83
2022/05/20 10:36:20;;;;;;;4.42;1.50;;;;;;;21.24;29.34;100360.84;1720829;81;21172;-84
2022/05/20 10:40:06;;;;;;;4.72;1.42;;;;;;;21.21;28.57;100370.21;1691910;84;21172;-83
2022/05/20 10:43:24;;;;;;;6.47;1.32;;;;;;;21.21;30.39;100367.43;1691079;84;21224;-83
2022/05/20 10:50:17;;;;;;;5.42;1.37;;;;;;;21.25;29.83;100365.30;1680271;84;21208;-80
2022/05/20 10:53:48;;;;;;;7.25;1.40;;;;;;;21.35;29.95;100367.48;1665589;83;21889;-77
2022/05/20 10:57:14;;;;;;;6.85;1.30;;;;;;;21.36;30.34;100363.61;1720619;83;22102;-77
2022/05/20 11:00:26;;;;;;;5.65;1.27;;;;;;;21.41;30.13;100358.18;1685419;85;21201;-77
2022/05/20 11:03:36;;;;;;;5.08;1.62;;;;;;;21.36;29.70;100361.70;1684747;85;21244;-77
2022/05/20 11:06:59;;;;;;;3.27;1.52;;;;;;;21.28;30.53;100362.59;1689433;83;21208;-77
2022/05/20 11:10:32;;;;;;;6.25;1.30;;;;;;;21.19;31.71;100364.91;1687686;85;21173;-77
2022/05/20 11:14:25;;;;;;;6.20;1.40;;;;;;;21.11;31.12;100352.20;1684416;85;21248;-77
2022/05/20 11:17:46;;;;;;;3.98;1.45;;;;;;;21.04;30.63;100355.69;1684702;85;21204;-77
2022/05/20 11:21:15;;;;;;;6.03;1.50;;;;;;;20.95;31.31;100345.18;1673790;85;21202;-77
2022/05/20 11:24:30;;;;;;;5.72;1.52;;;;;;;20.97;32.39;100341.05;1724953;83;21259;-78
2022/05/20 11:28:00;;;;;;;5.00;1.50;;;;;;;21.04;30.97;100336.77;1724809;83;21223;-77
2022/05/20 11:31:27;;;;;;;3.02;1.25;;;;;;;21.05;31.22;100332.34;1703398;83;21894;-77
2022/05/20 11:34:47;;;;;;;8.05;1.45;;;;;;;21.03;31.19;100338.70;1727510;83;21795;-78
2022/05/20 11:38:03;;;;;;;4.67;1.45;;;;;;;20.98;31.88;100314.93;1720829;83;21761;-78
2022/05/20 11:41:42;;;;;;;10.45;1.45;;;;;;;21.04;32.07;100313.97;1731599;83;21199;-77
2022/05/20 11:45:10;;;;;;;6.70;2.10;;;;;;;20.98;31.42;100317.71;1731059;83;21256;-79
2022/05/20 11:48:25;;;;;;;5.20;1.47;;;;;;;20.95;32.31;100314.05;1657830;86;21265;-77
2022/05/20 11:51:47;;;;;;;3.08;1.50;;;;;;;20.98;31.14;100334.94;1688655;84;21657;-77
2022/05/20 11:55:04;;;;;;;5.42;1.47;;;;;;;21.02;30.99;100323.09;1698553;84;21249;-77
2022/05/20 11:58:16;;;;;;;9.53;1.57;;;;;;;21.00;31.71;100309.98;1690170;84;21200;-78
2022/05/20 12:01:21;;;;;;;7.90;1.45;;;;;;;20.97;31.79;100314.64;1716420;83;21177;-78
2022/05/20 12:04:28;;;;;;;6.70;1.50;;;;;;;20.97;32.03;100310.47;1715656;83;21748;-77
2022/05/20 12:07:35;;;;;;;7.10;1.52;;;;;;;20.97;33.01;100297.95;1700439;83;21241;-77
2022/05/20 12:10:49;;;;;;;4.67;1.65;;;;;;;20.99;32.26;100309.70;1701269;84;21255;-77
2022/05/20 12:14:17;;;;;;;4.05;1.37;;;;;;;20.95;32.49;100291.81;1699764;83;21278;-77
2022/05/20 12:17:20;;;;;;;3.55;1.50;;;;;;;20.95;32.11;100307.09;1752333;81;21195;-77
2022/05/20 12:24:23;;;;;;;4.22;1.62;;;;;;;21.00;32.94;100285.52;1694514;83;21568;-77
2022/05/20 12:27:35;;;;;;;9.70;1.55;;;;;;;21.01;33.74;100282.48;1716122;83;21238;-77
2022/05/20 12:30:55;;;;;;;7.05;1.67;;;;;;;20.98;34.39;100284.34;1727693;83;21222;-77
2022/05/20 12:34:14;;;;;;;9.33;1.90;;;;;;;20.98;34.70;100281.56;1726369;83;21182;-77
2022/05/20 12:37:40;;;;;;;4.75;1.62;;;;;;;21.01;34.73;100270.52;1724604;83;21198;-77
2022/05/20 12:40:51;;;;;;;3.58;1.80;;;;;;;21.06;35.03;100265.89;1727604;83;21139;-77
2022/05/20 12:44:02;;;;;;;4.80;1.62;;;;;;;21.03;34.65;100260.84;1727597;83;21195;-77
2022/05/20 12:47:38;;;;;;;10.10;1.80;;;;;;;21.02;35.07;100267.48;1727738;83;21669;-77
2022/05/20 12:50:43;;;;;;;5.20;2.47;;;;;;;21.04;35.54;100268.09;1716631;83;21162;-77
2022/05/20 12:53:49;;;;;;;5.83;1.72;;;;;;;21.07;35.76;100253.67;1717761;83;21182;-77
2022/05/20 12:56:57;;;;;;;3.27;1.75;;;;;;;21.07;36.43;100252.28;1716433;83;21172;-77
2022/05/20 13:00:06;;;;;;;5.65;2.10;;;;;;;21.05;36.57;100247.53;1726128;83;21123;-77
2022/05/20 13:03:16;;;;;;;4.35;2.02;;;;;;;21.05;37.39;100258.66;1715419;83;21172;-77
2022/05/20 13:06:28;;;;;;;9.00;2.20;;;;;;;21.04;36.81;100251.41;1727575;83;21545;-77
2022/05/20 13:09:45;;;;;;;7.85;2.15;;;;;;;20.98;37.46;100254.31;1727360;83;21190;-77
2022/05/20 13:12:57;;;;;;;5.47;2.25;;;;;;;20.95;37.20;100246.48;1708694;83;21194;-77
2022/05/20 13:16:09;;;;;;;6.12;1.90;;;;;;;20.93;36.87;100249.48;1725857;83;21198;-77
2022/05/20 13:19:19;;;;;;;4.80;1.87;;;;;;;20.93;38.12;100246.70;1727506;83;21183;-77
2022/05/20 13:22:23;;;;;;;11.43;2.05;;;;;;;20.97;38.15;100241.51;1727222;83;22114;-77
2022/05/20 13:25:26;;;;;;;5.58;2.25;;;;;;;20.99;38.23;100243.52;1706947;83;21150;-77
2022/05/20 13:28:42;;;;;;;4.17;1.50;;;;;;;21.00;37.46;100237.70;1704786;83;21174;-78
2022/05/20 13:31:49;;;;;;;5.97;2.00;;;;;;;20.99;37.73;100235.17;1727109;83;21206;-77
2022/05/20 13:34:58;;;;;;;6.08;1.90;;;;;;;20.93;38.34;100229.48;1723991;83;21247;-77
2022/05/20 13:38:06;;;;;;;9.43;2.30;;;;;;;20.91;38.64;100226.66;1697620;84;21872;-77
2022/05/20 13:41:04;;;;;;;8.65;2.80;;;;;;;20.89;38.78;100227.47;1697936;84;21223;-77
2022/05/20 13:44:12;;;;;;;5.00;1.87;;;;;;;20.86;39.18;100227.95;1697544;84;21763;-77
2022/05/20 13:50:46;;;;;;;7.55;1.98;;;;;;;20.84;39.50;100217.60;1697837;84;21676;-83
2022/05/20 13:53:57;;;;;;;4.40;1.98;;;;;;;20.84;39.20;100218.48;1697794;84;21264;-77
2022/05/20 13:57:03;;;;;;;5.47;2.20;;;;;;;20.84;39.60;100216.21;1696178;84;21176;-83
2022/05/20 14:00:13;;;;;;;9.55;1.67;;;;;;;20.81;40.11;100209.78;1698141;84;21252;-77
2022/05/20 14:03:35;;;;;;;7.78;1.95;;;;;;;20.81;40.41;100211.17;1697415;84;21207;-84
2022/05/20 14:06:42;;;;;;;4.92;1.70;;;;;;;20.82;40.83;100211.45;1691364;84;21196;-83
2022/05/20 14:10:00;;;;;;;7.92;2.17;;;;;;;20.83;41.92;100207.03;1695388;84;21156;-82
2022/05/20 14:13:17;;;;;;;4.17;1.90;;;;;;;20.82;42.17;100205.35;1676158;84;21252;-83
2022/05/20 14:16:27;;;;;;;2.58;1.52;;;;;;;20.80;42.23;100206.70;1695117;84;21173;-83
2022/05/20 14:19:51;;;;;;;4.40;1.60;;;;;;;20.75;42.96;100201.88;1695071;84;21610;-83
2022/05/20 14:22:56;;;;;;;5.42;1.75;;;;;;;20.70;43.43;100197.58;1694994;84;21196;-83
2022/05/20 14:26:08;;;;;;;3.25;1.75;;;;;;;20.65;42.74;100200.25;1695112;84;21188;-83
2022/05/20 14:29:26;;;;;;;7.35;1.80;;;;;;;20.58;42.64;100196.78;1693697;84;21276;-83
2022/05/20 14:32:32;;;;;;;3.30;1.98;;;;;;;20.56;43.65;100197.03;1693869;84;21853;-83
2022/05/20 14:35:48;;;;;;;9.40;2.00;;;;;;;20.59;43.77;100203.47;1710196;83;21232;-84
2022/05/20 14:38:58;;;;;;;3.15;1.70;;;;;;;20.62;42.95;100214.66;1745934;82;21719;-83
2022/05/20 14:42:38;;;;;;;3.58;1.80;;;;;;;20.60;42.82;100198.75;1743433;82;21252;-83
2022/05/20 14:45:47;;;;;;;9.18;2.17;;;;;;;20.58;42.96;100207.34;1755996;81;21169;-83
2022/05/20 14:48:52;;;;;;;6.10;2.15;;;;;;;20.51;43.62;100205.78;1754470;81;21220;-84
2022/05/20 14:52:00;;;;;;;8.03;1.82;;;;;;;20.42;44.44;100208.92;1743493;81;21209;-83
2022/05/20 14:55:05;;;;;;;4.40;1.90;;;;;;;20.32;44.65;100213.37;1741560;82;21888;-83
2022/05/20 14:58:34;;;;;;;7.62;2.40;;;;;;;20.16;44.69;100207.48;1740537;82;21167;-84
2022/05/20 15:01:40;;;;;;;3.47;1.77;;;;;;;20.02;45.05;100204.64;1741274;82;21745;-84
2022/05/20 15:04:46;;;;;;;6.00;1.72;;;;;;;19.90;45.46;100203.77;1746588;80;21761;-83
2022/05/20 15:07:51;;;;;;;6.95;1.95;;;;;;;19.83;45.96;100204.45;1705028;82;21692;-83
2022/05/20 15:11:08;;;;;;;9.50;1.50;;;;;;;19.78;46.26;100197.38;1708340;83;21272;-84
2022/05/20 15:14:12;;;;;;;4.22;1.82;;;;;;;19.72;45.49;100197.81;1721264;83;21186;-85
2022/05/20 15:17:20;;;;;;;5.92;1.65;;;;;;;19.66;45.47;100196.81;1721414;83;21237;-84
2022/05/20 15:20:26;;;;;;;6.75;1.37;;;;;;;19.62;45.45;100200.33;1755058;81;21730;-84
2022/05/20 15:23:58;;;;;;;5.50;1.47;;;;;;;19.58;44.68;100204.08;1755060;81;21207;-84
2022/05/20 15:27:03;;;;;;;10.72;1.62;;;;;;;19.59;45.24;100202.98;1755642;81;21524;-83